sensor_id;sensor_type;location;lat;lon;timestamp;P1;durP1;ratioP1;P2;durP2;ratioP2
76380;SDS011;65202;52.520;10.528;2023-08-30T00:01:33;9.07;;;2.50;;
76380;SDS011;65202;52.520;10.528;2023-08-30T00:04:01;4.20;;;2.70;;
76380;SDS011;65202;52.520;10.528;2023-08-30T00:06:28;3.70;;;2.80;;
76380;SDS011;65202;52.520;10.528;2023-08-30T00:08:55;5.97;;;3.13;;
76380;SDS011;65202;52.520;10.528;2023-08-30T00:11:24;6.20;;;3.30;;
76380;SDS011;65202;52.520;10.528;2023-08-30T00:13:51;11.98;;;5.78;;
76380;SDS011;65202;52.520;10.528;2023-08-30T00:16:18;7.18;;;3.67;;
76380;SDS011;65202;52.520;10.528;2023-08-30T00:18:46;4.93;;;3.35;;
76380;SDS011;65202;52.520;10.528;2023-08-30T00:21:13;7.38;;;3.10;;
76380;SDS011;65202;52.520;10.528;2023-08-30T00:23:40;5.95;;;3.20;;
76380;SDS011;65202;52.520;10.528;2023-08-30T00:26:08;4.07;;;3.20;;
76380;SDS011;65202;52.520;10.528;2023-08-30T00:28:35;4.25;;;3.13;;
76380;SDS011;65202;52.520;10.528;2023-08-30T00:31:02;3.45;;;2.80;;
76380;SDS011;65202;52.520;10.528;2023-08-30T00:33:29;5.78;;;3.20;;
76380;SDS011;65202;52.520;10.528;2023-08-30T00:35:58;3.15;;;2.90;;
76380;SDS011;65202;52.520;10.528;2023-08-30T00:38:32;3.80;;;3.05;;
76380;SDS011;65202;52.520;10.528;2023-08-30T00:41:00;8.00;;;2.97;;
76380;SDS011;65202;52.520;10.528;2023-08-30T00:43:27;5.07;;;3.08;;
76380;SDS011;65202;52.520;10.528;2023-08-30T00:45:54;6.72;;;3.97;;
76380;SDS011;65202;52.520;10.528;2023-08-30T00:48:23;5.43;;;3.50;;
76380;SDS011;65202;52.520;10.528;2023-08-30T00:50:50;5.07;;;3.20;;
76380;SDS011;65202;52.520;10.528;2023-08-30T00:53:17;6.07;;;4.00;;
76380;SDS011;65202;52.520;10.528;2023-08-30T00:55:45;4.25;;;3.70;;
76380;SDS011;65202;52.520;10.528;2023-08-30T00:58:12;6.50;;;3.40;;
76380;SDS011;65202;52.520;10.528;2023-08-30T01:00:40;6.55;;;3.53;;
76380;SDS011;65202;52.520;10.528;2023-08-30T01:03:08;4.55;;;3.30;;
76380;SDS011;65202;52.520;10.528;2023-08-30T01:05:35;4.15;;;3.20;;
76380;SDS011;65202;52.520;10.528;2023-08-30T01:08:03;8.63;;;3.25;;
76380;SDS011;65202;52.520;10.528;2023-08-30T01:10:40;8.27;;;3.00;;
76380;SDS011;65202;52.520;10.528;2023-08-30T01:13:28;7.47;;;2.80;;
76380;SDS011;65202;52.520;10.528;2023-08-30T01:16:00;9.10;;;3.13;;
76380;SDS011;65202;52.520;10.528;2023-08-30T01:18:29;7.05;;;3.40;;
76380;SDS011;65202;52.520;10.528;2023-08-30T01:21:02;5.05;;;2.92;;
76380;SDS011;65202;52.520;10.528;2023-08-30T01:23:48;5.25;;;3.22;;
76380;SDS011;65202;52.520;10.528;2023-08-30T01:26:38;3.90;;;3.15;;
76380;SDS011;65202;52.520;10.528;2023-08-30T01:29:16;5.25;;;3.30;;
76380;SDS011;65202;52.520;10.528;2023-08-30T01:31:47;5.65;;;3.28;;
76380;SDS011;65202;52.520;10.528;2023-08-30T01:34:16;4.82;;;3.55;;
76380;SDS011;65202;52.520;10.528;2023-08-30T01:36:44;3.78;;;3.30;;
76380;SDS011;65202;52.520;10.528;2023-08-30T01:39:11;4.97;;;3.47;;
76380;SDS011;65202;52.520;10.528;2023-08-30T01:41:41;5.53;;;3.30;;
76380;SDS011;65202;52.520;10.528;2023-08-30T01:44:10;7.60;;;4.00;;
76380;SDS011;65202;52.520;10.528;2023-08-30T01:46:39;8.10;;;3.45;;
76380;SDS011;65202;52.520;10.528;2023-08-30T01:49:07;6.28;;;3.42;;
76380;SDS011;65202;52.520;10.528;2023-08-30T01:51:36;4.68;;;3.30;;
76380;SDS011;65202;52.520;10.528;2023-08-30T01:54:05;5.20;;;3.60;;
76380;SDS011;65202;52.520;10.528;2023-08-30T01:56:35;4.78;;;3.75;;
76380;SDS011;65202;52.520;10.528;2023-08-30T01:59:02;6.10;;;3.58;;
76380;SDS011;65202;52.520;10.528;2023-08-30T02:01:29;6.97;;;3.55;;
76380;SDS011;65202;52.520;10.528;2023-08-30T02:03:57;6.68;;;3.83;;
76380;SDS011;65202;52.520;10.528;2023-08-30T02:06:26;6.15;;;4.03;;
76380;SDS011;65202;52.520;10.528;2023-08-30T02:09:17;6.85;;;4.18;;
76380;SDS011;65202;52.520;10.528;2023-08-30T02:11:51;8.20;;;4.47;;
76380;SDS011;65202;52.520;10.528;2023-08-30T02:14:22;6.88;;;4.35;;
76380;SDS011;65202;52.520;10.528;2023-08-30T02:16:53;6.53;;;4.45;;
76380;SDS011;65202;52.520;10.528;2023-08-30T02:19:22;5.53;;;4.50;;
76380;SDS011;65202;52.520;10.528;2023-08-30T02:21:51;7.10;;;4.40;;
76380;SDS011;65202;52.520;10.528;2023-08-30T02:24:18;5.53;;;4.38;;
76380;SDS011;65202;52.520;10.528;2023-08-30T02:26:45;6.60;;;4.72;;
76380;SDS011;65202;52.520;10.528;2023-08-30T02:29:12;6.63;;;4.30;;
76380;SDS011;65202;52.520;10.528;2023-08-30T02:31:40;7.03;;;4.80;;
76380;SDS011;65202;52.520;10.528;2023-08-30T02:34:07;5.90;;;4.90;;
76380;SDS011;65202;52.520;10.528;2023-08-30T02:36:35;7.85;;;4.25;;
76380;SDS011;65202;52.520;10.528;2023-08-30T02:39:02;5.68;;;4.30;;
76380;SDS011;65202;52.520;10.528;2023-08-30T02:41:30;9.75;;;4.93;;
76380;SDS011;65202;52.520;10.528;2023-08-30T02:43:57;6.65;;;5.20;;
76380;SDS011;65202;52.520;10.528;2023-08-30T02:46:25;8.48;;;5.30;;
76380;SDS011;65202;52.520;10.528;2023-08-30T02:48:52;8.85;;;5.00;;
76380;SDS011;65202;52.520;10.528;2023-08-30T02:51:19;6.40;;;4.68;;
76380;SDS011;65202;52.520;10.528;2023-08-30T02:53:47;6.45;;;5.00;;
76380;SDS011;65202;52.520;10.528;2023-08-30T02:56:14;5.72;;;4.85;;
76380;SDS011;65202;52.520;10.528;2023-08-30T02:58:41;7.65;;;4.93;;
76380;SDS011;65202;52.520;10.528;2023-08-30T03:01:08;7.65;;;5.20;;
76380;SDS011;65202;52.520;10.528;2023-08-30T03:03:36;8.20;;;4.80;;
76380;SDS011;65202;52.520;10.528;2023-08-30T03:06:03;6.88;;;4.80;;
76380;SDS011;65202;52.520;10.528;2023-08-30T03:08:30;6.47;;;5.07;;
76380;SDS011;65202;52.520;10.528;2023-08-30T03:11:12;7.15;;;5.40;;
76380;SDS011;65202;52.520;10.528;2023-08-30T03:13:40;8.70;;;5.90;;
76380;SDS011;65202;52.520;10.528;2023-08-30T03:16:11;10.43;;;5.32;;
76380;SDS011;65202;52.520;10.528;2023-08-30T03:18:40;8.55;;;5.55;;
76380;SDS011;65202;52.520;10.528;2023-08-30T03:21:08;9.05;;;5.55;;
76380;SDS011;65202;52.520;10.528;2023-08-30T03:23:37;11.68;;;5.93;;
76380;SDS011;65202;52.520;10.528;2023-08-30T03:26:11;11.45;;;6.50;;
76380;SDS011;65202;52.520;10.528;2023-08-30T03:28:41;8.43;;;5.40;;
76380;SDS011;65202;52.520;10.528;2023-08-30T03:31:19;6.00;;;4.45;;
76380;SDS011;65202;52.520;10.528;2023-08-30T03:33:48;6.50;;;4.30;;
76380;SDS011;65202;52.520;10.528;2023-08-30T03:36:16;5.70;;;4.50;;
76380;SDS011;65202;52.520;10.528;2023-08-30T03:38:45;7.53;;;4.40;;
76380;SDS011;65202;52.520;10.528;2023-08-30T03:41:12;6.72;;;4.70;;
76380;SDS011;65202;52.520;10.528;2023-08-30T03:43:40;6.13;;;4.28;;
76380;SDS011;65202;52.520;10.528;2023-08-30T03:46:07;6.43;;;4.50;;
76380;SDS011;65202;52.520;10.528;2023-08-30T03:48:36;6.93;;;4.82;;
76380;SDS011;65202;52.520;10.528;2023-08-30T03:51:04;6.57;;;5.03;;
76380;SDS011;65202;52.520;10.528;2023-08-30T03:53:31;6.93;;;5.03;;
76380;SDS011;65202;52.520;10.528;2023-08-30T03:55:58;11.88;;;6.18;;
76380;SDS011;65202;52.520;10.528;2023-08-30T03:58:26;12.68;;;6.68;;
76380;SDS011;65202;52.520;10.528;2023-08-30T04:00:54;9.10;;;5.88;;
76380;SDS011;65202;52.520;10.528;2023-08-30T04:03:21;11.25;;;5.80;;
76380;SDS011;65202;52.520;10.528;2023-08-30T04:05:53;8.95;;;6.28;;
76380;SDS011;65202;52.520;10.528;2023-08-30T04:08:23;8.77;;;7.10;;
76380;SDS011;65202;52.520;10.528;2023-08-30T04:10:54;9.20;;;6.72;;
76380;SDS011;65202;52.520;10.528;2023-08-30T04:13:21;8.52;;;7.32;;
76380;SDS011;65202;52.520;10.528;2023-08-30T04:15:48;12.52;;;7.00;;
76380;SDS011;65202;52.520;10.528;2023-08-30T04:18:16;9.57;;;7.68;;
76380;SDS011;65202;52.520;10.528;2023-08-30T04:20:44;10.43;;;7.20;;
76380;SDS011;65202;52.520;10.528;2023-08-30T04:23:13;12.40;;;7.47;;
76380;SDS011;65202;52.520;10.528;2023-08-30T04:25:40;10.15;;;7.57;;
76380;SDS011;65202;52.520;10.528;2023-08-30T04:28:09;9.52;;;7.55;;
76380;SDS011;65202;52.520;10.528;2023-08-30T04:30:36;13.48;;;8.38;;
76380;SDS011;65202;52.520;10.528;2023-08-30T04:33:05;11.32;;;7.03;;
76380;SDS011;65202;52.520;10.528;2023-08-30T04:35:33;11.88;;;7.90;;
76380;SDS011;65202;52.520;10.528;2023-08-30T04:38:00;11.30;;;7.88;;
76380;SDS011;65202;52.520;10.528;2023-08-30T04:40:30;11.75;;;7.40;;
76380;SDS011;65202;52.520;10.528;2023-08-30T04:42:58;9.88;;;6.45;;
76380;SDS011;65202;52.520;10.528;2023-08-30T04:45:26;12.20;;;7.32;;
76380;SDS011;65202;52.520;10.528;2023-08-30T04:47:54;9.50;;;7.13;;
76380;SDS011;65202;52.520;10.528;2023-08-30T04:50:22;7.85;;;7.03;;
76380;SDS011;65202;52.520;10.528;2023-08-30T04:52:50;8.30;;;7.38;;
76380;SDS011;65202;52.520;10.528;2023-08-30T04:55:17;8.82;;;6.70;;
76380;SDS011;65202;52.520;10.528;2023-08-30T04:57:45;9.88;;;7.32;;
76380;SDS011;65202;52.520;10.528;2023-08-30T05:00:14;12.15;;;7.85;;
76380;SDS011;65202;52.520;10.528;2023-08-30T05:02:42;12.50;;;9.68;;
76380;SDS011;65202;52.520;10.528;2023-08-30T05:05:11;10.10;;;9.00;;
76380;SDS011;65202;52.520;10.528;2023-08-30T05:07:38;10.98;;;9.20;;
76380;SDS011;65202;52.520;10.528;2023-08-30T05:10:06;10.60;;;9.45;;
76380;SDS011;65202;52.520;10.528;2023-08-30T05:12:34;17.45;;;9.63;;
76380;SDS011;65202;52.520;10.528;2023-08-30T05:15:02;13.50;;;9.48;;
76380;SDS011;65202;52.520;10.528;2023-08-30T05:17:33;11.93;;;9.43;;
76380;SDS011;65202;52.520;10.528;2023-08-30T05:20:00;16.77;;;10.82;;
76380;SDS011;65202;52.520;10.528;2023-08-30T05:22:27;14.35;;;10.45;;
76380;SDS011;65202;52.520;10.528;2023-08-30T05:24:55;13.18;;;10.23;;
76380;SDS011;65202;52.520;10.528;2023-08-30T05:27:22;13.32;;;10.10;;
76380;SDS011;65202;52.520;10.528;2023-08-30T05:29:49;15.55;;;10.70;;
76380;SDS011;65202;52.520;10.528;2023-08-30T05:32:17;12.98;;;10.20;;
76380;SDS011;65202;52.520;10.528;2023-08-30T05:34:44;15.05;;;10.60;;
76380;SDS011;65202;52.520;10.528;2023-08-30T05:37:11;16.25;;;10.70;;
76380;SDS011;65202;52.520;10.528;2023-08-30T05:39:39;15.15;;;10.93;;
76380;SDS011;65202;52.520;10.528;2023-08-30T05:42:06;15.77;;;10.57;;
76380;SDS011;65202;52.520;10.528;2023-08-30T05:44:33;14.70;;;11.13;;
76380;SDS011;65202;52.520;10.528;2023-08-30T05:47:01;16.90;;;10.27;;
76380;SDS011;65202;52.520;10.528;2023-08-30T05:49:28;14.05;;;10.32;;
76380;SDS011;65202;52.520;10.528;2023-08-30T05:51:55;10.52;;;9.40;;
76380;SDS011;65202;52.520;10.528;2023-08-30T05:54:23;12.98;;;9.95;;
76380;SDS011;65202;52.520;10.528;2023-08-30T05:56:50;14.18;;;9.93;;
76380;SDS011;65202;52.520;10.528;2023-08-30T05:59:17;12.27;;;9.77;;
76380;SDS011;65202;52.520;10.528;2023-08-30T06:01:44;10.30;;;8.55;;
76380;SDS011;65202;52.520;10.528;2023-08-30T06:04:12;15.77;;;9.20;;
76380;SDS011;65202;52.520;10.528;2023-08-30T06:06:40;16.25;;;9.57;;
76380;SDS011;65202;52.520;10.528;2023-08-30T06:09:07;9.43;;;7.95;;
76380;SDS011;65202;52.520;10.528;2023-08-30T06:11:35;10.88;;;8.30;;
76380;SDS011;65202;52.520;10.528;2023-08-30T06:14:02;12.23;;;8.43;;
76380;SDS011;65202;52.520;10.528;2023-08-30T06:16:29;11.57;;;8.48;;
76380;SDS011;65202;52.520;10.528;2023-08-30T06:18:56;10.63;;;8.02;;
76380;SDS011;65202;52.520;10.528;2023-08-30T06:21:25;11.57;;;8.25;;
76380;SDS011;65202;52.520;10.528;2023-08-30T06:23:53;13.10;;;8.25;;
76380;SDS011;65202;52.520;10.528;2023-08-30T06:26:20;19.77;;;8.27;;
76380;SDS011;65202;52.520;10.528;2023-08-30T06:28:47;13.20;;;8.07;;
76380;SDS011;65202;52.520;10.528;2023-08-30T06:31:30;11.23;;;7.28;;
76380;SDS011;65202;52.520;10.528;2023-08-30T06:33:59;9.88;;;7.43;;
76380;SDS011;65202;52.520;10.528;2023-08-30T06:36:27;10.13;;;7.90;;
76380;SDS011;65202;52.520;10.528;2023-08-30T06:38:54;11.70;;;8.10;;
76380;SDS011;65202;52.520;10.528;2023-08-30T06:41:21;10.75;;;7.35;;
76380;SDS011;65202;52.520;10.528;2023-08-30T06:43:50;10.38;;;7.10;;
76380;SDS011;65202;52.520;10.528;2023-08-30T06:46:17;12.57;;;7.25;;
76380;SDS011;65202;52.520;10.528;2023-08-30T06:48:45;8.55;;;7.10;;
76380;SDS011;65202;52.520;10.528;2023-08-30T06:51:12;7.80;;;6.97;;
76380;SDS011;65202;52.520;10.528;2023-08-30T06:53:39;9.65;;;6.55;;
76380;SDS011;65202;52.520;10.528;2023-08-30T06:56:06;10.02;;;6.63;;
76380;SDS011;65202;52.520;10.528;2023-08-30T06:58:33;9.85;;;6.88;;
76380;SDS011;65202;52.520;10.528;2023-08-30T07:01:01;9.93;;;6.72;;
76380;SDS011;65202;52.520;10.528;2023-08-30T07:03:30;9.70;;;6.65;;
76380;SDS011;65202;52.520;10.528;2023-08-30T07:05:57;11.20;;;6.85;;
76380;SDS011;65202;52.520;10.528;2023-08-30T07:08:24;9.07;;;6.88;;
76380;SDS011;65202;52.520;10.528;2023-08-30T07:10:51;13.07;;;6.43;;
76380;SDS011;65202;52.520;10.528;2023-08-30T07:13:19;8.45;;;6.35;;
76380;SDS011;65202;52.520;10.528;2023-08-30T07:15:46;6.75;;;5.90;;
76380;SDS011;65202;52.520;10.528;2023-08-30T07:18:13;6.65;;;5.88;;
76380;SDS011;65202;52.520;10.528;2023-08-30T07:20:41;8.75;;;6.30;;
76380;SDS011;65202;52.520;10.528;2023-08-30T07:23:09;8.10;;;5.75;;
76380;SDS011;65202;52.520;10.528;2023-08-30T07:25:37;8.68;;;5.22;;
76380;SDS011;65202;52.520;10.528;2023-08-30T07:28:05;7.55;;;5.57;;
76380;SDS011;65202;52.520;10.528;2023-08-30T07:30:34;8.85;;;5.63;;
76380;SDS011;65202;52.520;10.528;2023-08-30T07:33:02;6.78;;;5.00;;
76380;SDS011;65202;52.520;10.528;2023-08-30T07:35:31;7.97;;;5.45;;
76380;SDS011;65202;52.520;10.528;2023-08-30T07:37:59;9.63;;;5.55;;
76380;SDS011;65202;52.520;10.528;2023-08-30T07:40:27;8.73;;;5.90;;
76380;SDS011;65202;52.520;10.528;2023-08-30T07:42:55;11.82;;;5.90;;
76380;SDS011;65202;52.520;10.528;2023-08-30T07:45:26;8.05;;;5.78;;
76380;SDS011;65202;52.520;10.528;2023-08-30T07:47:53;5.40;;;4.65;;
76380;SDS011;65202;52.520;10.528;2023-08-30T07:50:23;6.65;;;4.55;;
76380;SDS011;65202;52.520;10.528;2023-08-30T07:52:51;5.32;;;3.67;;
76380;SDS011;65202;52.520;10.528;2023-08-30T07:55:18;7.22;;;3.63;;
76380;SDS011;65202;52.520;10.528;2023-08-30T07:57:45;8.23;;;4.00;;
76380;SDS011;65202;52.520;10.528;2023-08-30T08:00:13;8.15;;;3.65;;
76380;SDS011;65202;52.520;10.528;2023-08-30T08:02:40;7.60;;;3.25;;
76380;SDS011;65202;52.520;10.528;2023-08-30T08:05:08;5.95;;;3.00;;
76380;SDS011;65202;52.520;10.528;2023-08-30T08:07:37;5.63;;;3.25;;
76380;SDS011;65202;52.520;10.528;2023-08-30T08:10:06;4.47;;;3.38;;
76380;SDS011;65202;52.520;10.528;2023-08-30T08:12:35;4.07;;;3.30;;
76380;SDS011;65202;52.520;10.528;2023-08-30T08:15:02;4.72;;;2.97;;
76380;SDS011;65202;52.520;10.528;2023-08-30T08:17:30;6.13;;;3.50;;
76380;SDS011;65202;52.520;10.528;2023-08-30T08:19:57;14.80;;;3.20;;
76380;SDS011;65202;52.520;10.528;2023-08-30T08:22:24;3.65;;;2.90;;
76380;SDS011;65202;52.520;10.528;2023-08-30T08:24:53;7.50;;;2.95;;
76380;SDS011;65202;52.520;10.528;2023-08-30T08:27:26;5.57;;;2.83;;
76380;SDS011;65202;52.520;10.528;2023-08-30T08:29:53;5.05;;;2.40;;
76380;SDS011;65202;52.520;10.528;2023-08-30T08:32:20;5.57;;;3.30;;
76380;SDS011;65202;52.520;10.528;2023-08-30T08:34:48;7.28;;;2.70;;
76380;SDS011;65202;52.520;10.528;2023-08-30T08:37:15;6.50;;;2.60;;
76380;SDS011;65202;52.520;10.528;2023-08-30T08:39:43;6.70;;;2.65;;
76380;SDS011;65202;52.520;10.528;2023-08-30T08:42:13;3.25;;;2.60;;
76380;SDS011;65202;52.520;10.528;2023-08-30T08:44:43;5.20;;;2.90;;
76380;SDS011;65202;52.520;10.528;2023-08-30T08:47:16;9.43;;;3.60;;
76380;SDS011;65202;52.520;10.528;2023-08-30T08:49:46;4.95;;;3.10;;
76380;SDS011;65202;52.520;10.528;2023-08-30T08:52:14;5.00;;;3.10;;
76380;SDS011;65202;52.520;10.528;2023-08-30T08:57:27;7.32;;;5.47;;
76380;SDS011;65202;52.520;10.528;2023-08-30T08:59:58;10.25;;;6.25;;
76380;SDS011;65202;52.520;10.528;2023-08-30T09:02:26;8.70;;;4.30;;
76380;SDS011;65202;52.520;10.528;2023-08-30T09:04:56;6.32;;;4.25;;
76380;SDS011;65202;52.520;10.528;2023-08-30T09:07:26;7.97;;;4.57;;
76380;SDS011;65202;52.520;10.528;2023-08-30T09:09:57;8.18;;;6.15;;
76380;SDS011;65202;52.520;10.528;2023-08-30T09:12:25;8.52;;;5.50;;
76380;SDS011;65202;52.520;10.528;2023-08-30T09:14:53;8.65;;;4.63;;
76380;SDS011;65202;52.520;10.528;2023-08-30T09:17:22;5.60;;;4.30;;
76380;SDS011;65202;52.520;10.528;2023-08-30T09:19:50;9.30;;;5.55;;
76380;SDS011;65202;52.520;10.528;2023-08-30T09:22:17;10.18;;;7.38;;
76380;SDS011;65202;52.520;10.528;2023-08-30T09:24:45;8.48;;;5.78;;
76380;SDS011;65202;52.520;10.528;2023-08-30T09:27:12;10.02;;;5.32;;
76380;SDS011;65202;52.520;10.528;2023-08-30T09:29:39;10.05;;;5.18;;
76380;SDS011;65202;52.520;10.528;2023-08-30T09:32:10;7.68;;;4.40;;
76380;SDS011;65202;52.520;10.528;2023-08-30T09:34:45;10.02;;;5.50;;
76380;SDS011;65202;52.520;10.528;2023-08-30T09:37:23;6.50;;;5.40;;
76380;SDS011;65202;52.520;10.528;2023-08-30T09:39:50;8.00;;;5.05;;
76380;SDS011;65202;52.520;10.528;2023-08-30T09:42:18;9.75;;;5.80;;
76380;SDS011;65202;52.520;10.528;2023-08-30T09:44:46;8.45;;;5.70;;
76380;SDS011;65202;52.520;10.528;2023-08-30T09:47:14;7.45;;;6.03;;
76380;SDS011;65202;52.520;10.528;2023-08-30T09:49:45;7.45;;;5.47;;
76380;SDS011;65202;52.520;10.528;2023-08-30T09:52:14;9.45;;;4.75;;
76380;SDS011;65202;52.520;10.528;2023-08-30T09:54:42;7.07;;;4.97;;
76380;SDS011;65202;52.520;10.528;2023-08-30T09:57:12;8.60;;;4.55;;
76380;SDS011;65202;52.520;10.528;2023-08-30T09:59:40;6.50;;;4.68;;
76380;SDS011;65202;52.520;10.528;2023-08-30T10:02:09;7.15;;;4.80;;
76380;SDS011;65202;52.520;10.528;2023-08-30T10:04:40;8.25;;;4.47;;
76380;SDS011;65202;52.520;10.528;2023-08-30T10:07:08;5.50;;;4.18;;
76380;SDS011;65202;52.520;10.528;2023-08-30T10:09:39;7.65;;;4.55;;
76380;SDS011;65202;52.520;10.528;2023-08-30T10:12:28;5.85;;;3.90;;
76380;SDS011;65202;52.520;10.528;2023-08-30T10:14:56;7.32;;;4.50;;
76380;SDS011;65202;52.520;10.528;2023-08-30T10:17:27;10.13;;;4.18;;
76380;SDS011;65202;52.520;10.528;2023-08-30T10:19:58;5.25;;;4.47;;
76380;SDS011;65202;52.520;10.528;2023-08-30T10:22:31;6.25;;;3.70;;
76380;SDS011;65202;52.520;10.528;2023-08-30T10:27:40;7.70;;;5.43;;
76380;SDS011;65202;52.520;10.528;2023-08-30T10:30:12;6.25;;;5.20;;
76380;SDS011;65202;52.520;10.528;2023-08-30T10:32:43;12.68;;;4.40;;
76380;SDS011;65202;52.520;10.528;2023-08-30T10:35:13;6.43;;;4.72;;
76380;SDS011;65202;52.520;10.528;2023-08-30T10:37:53;5.22;;;4.10;;
76380;SDS011;65202;52.520;10.528;2023-08-30T10:40:22;9.15;;;3.90;;
76380;SDS011;65202;52.520;10.528;2023-08-30T10:43:02;5.88;;;3.70;;
76380;SDS011;65202;52.520;10.528;2023-08-30T10:45:31;8.85;;;4.00;;
76380;SDS011;65202;52.520;10.528;2023-08-30T10:47:59;8.52;;;4.60;;
76380;SDS011;65202;52.520;10.528;2023-08-30T10:50:33;5.50;;;3.55;;
76380;SDS011;65202;52.520;10.528;2023-08-30T10:53:01;4.35;;;3.20;;
76380;SDS011;65202;52.520;10.528;2023-08-30T10:55:29;5.35;;;3.63;;
76380;SDS011;65202;52.520;10.528;2023-08-30T10:58:00;6.70;;;3.38;;
76380;SDS011;65202;52.520;10.528;2023-08-30T11:00:30;4.55;;;3.05;;
76380;SDS011;65202;52.520;10.528;2023-08-30T11:02:58;17.45;;;4.13;;
76380;SDS011;65202;52.520;10.528;2023-08-30T11:05:26;6.20;;;4.65;;
76380;SDS011;65202;52.520;10.528;2023-08-30T11:07:55;8.13;;;5.85;;
76380;SDS011;65202;52.520;10.528;2023-08-30T11:10:22;8.68;;;5.70;;
76380;SDS011;65202;52.520;10.528;2023-08-30T11:12:50;6.13;;;5.18;;
76380;SDS011;65202;52.520;10.528;2023-08-30T11:15:18;11.05;;;7.47;;
76380;SDS011;65202;52.520;10.528;2023-08-30T11:17:47;8.65;;;5.50;;
76380;SDS011;65202;52.520;10.528;2023-08-30T11:20:16;9.70;;;6.22;;
76380;SDS011;65202;52.520;10.528;2023-08-30T11:22:46;8.70;;;6.38;;
76380;SDS011;65202;52.520;10.528;2023-08-30T11:25:15;7.47;;;6.60;;
76380;SDS011;65202;52.520;10.528;2023-08-30T11:27:43;10.57;;;7.00;;
76380;SDS011;65202;52.520;10.528;2023-08-30T11:30:11;9.40;;;7.13;;
76380;SDS011;65202;52.520;10.528;2023-08-30T11:32:39;6.45;;;5.63;;
76380;SDS011;65202;52.520;10.528;2023-08-30T11:35:12;7.88;;;5.53;;
76380;SDS011;65202;52.520;10.528;2023-08-30T11:37:40;8.20;;;5.93;;
76380;SDS011;65202;52.520;10.528;2023-08-30T11:40:09;11.38;;;6.35;;
76380;SDS011;65202;52.520;10.528;2023-08-30T11:42:38;9.88;;;6.22;;
76380;SDS011;65202;52.520;10.528;2023-08-30T11:45:07;13.80;;;5.68;;
76380;SDS011;65202;52.520;10.528;2023-08-30T11:47:36;5.20;;;4.70;;
76380;SDS011;65202;52.520;10.528;2023-08-30T11:50:03;7.75;;;5.45;;
76380;SDS011;65202;52.520;10.528;2023-08-30T11:52:33;9.05;;;5.40;;
76380;SDS011;65202;52.520;10.528;2023-08-30T11:55:01;7.50;;;5.25;;
76380;SDS011;65202;52.520;10.528;2023-08-30T11:57:32;6.75;;;4.90;;
76380;SDS011;65202;52.520;10.528;2023-08-30T12:00:10;8.35;;;4.57;;
76380;SDS011;65202;52.520;10.528;2023-08-30T12:02:41;8.95;;;5.25;;
76380;SDS011;65202;52.520;10.528;2023-08-30T12:05:10;7.65;;;4.78;;
76380;SDS011;65202;52.520;10.528;2023-08-30T12:07:41;8.10;;;4.32;;
76380;SDS011;65202;52.520;10.528;2023-08-30T12:10:09;5.50;;;4.13;;
76380;SDS011;65202;52.520;10.528;2023-08-30T12:12:38;5.38;;;3.80;;
76380;SDS011;65202;52.520;10.528;2023-08-30T12:15:13;6.28;;;3.45;;
76380;SDS011;65202;52.520;10.528;2023-08-30T12:17:43;6.22;;;4.30;;
76380;SDS011;65202;52.520;10.528;2023-08-30T12:20:14;5.63;;;3.60;;
76380;SDS011;65202;52.520;10.528;2023-08-30T12:22:44;6.43;;;3.90;;
76380;SDS011;65202;52.520;10.528;2023-08-30T12:25:18;9.63;;;4.15;;
76380;SDS011;65202;52.520;10.528;2023-08-30T12:27:54;5.53;;;3.65;;
76380;SDS011;65202;52.520;10.528;2023-08-30T12:30:21;5.85;;;3.80;;
76380;SDS011;65202;52.520;10.528;2023-08-30T12:32:49;5.65;;;3.50;;
76380;SDS011;65202;52.520;10.528;2023-08-30T12:35:16;8.77;;;4.07;;
76380;SDS011;65202;52.520;10.528;2023-08-30T12:37:43;6.95;;;3.13;;
76380;SDS011;65202;52.520;10.528;2023-08-30T12:40:11;6.82;;;3.67;;
76380;SDS011;65202;52.520;10.528;2023-08-30T12:42:38;5.00;;;4.50;;
76380;SDS011;65202;52.520;10.528;2023-08-30T12:45:06;6.07;;;3.45;;
76380;SDS011;65202;52.520;10.528;2023-08-30T12:47:34;6.78;;;4.78;;
76380;SDS011;65202;52.520;10.528;2023-08-30T12:50:03;10.63;;;4.60;;
76380;SDS011;65202;52.520;10.528;2023-08-30T12:52:32;6.07;;;4.25;;
76380;SDS011;65202;52.520;10.528;2023-08-30T12:54:59;7.10;;;4.97;;
76380;SDS011;65202;52.520;10.528;2023-08-30T12:57:26;7.82;;;5.00;;
76380;SDS011;65202;52.520;10.528;2023-08-30T12:59:53;8.63;;;5.50;;
76380;SDS011;65202;52.520;10.528;2023-08-30T13:02:21;8.93;;;5.40;;
76380;SDS011;65202;52.520;10.528;2023-08-30T13:04:48;7.93;;;4.93;;
76380;SDS011;65202;52.520;10.528;2023-08-30T13:07:15;7.00;;;5.50;;
76380;SDS011;65202;52.520;10.528;2023-08-30T13:09:43;12.32;;;6.47;;
76380;SDS011;65202;52.520;10.528;2023-08-30T13:12:10;7.68;;;6.60;;
76380;SDS011;65202;52.520;10.528;2023-08-30T13:14:37;9.95;;;5.43;;
76380;SDS011;65202;52.520;10.528;2023-08-30T13:17:04;6.90;;;5.22;;
76380;SDS011;65202;52.520;10.528;2023-08-30T13:19:31;8.43;;;5.93;;
76380;SDS011;65202;52.520;10.528;2023-08-30T13:21:59;7.32;;;6.03;;
76380;SDS011;65202;52.520;10.528;2023-08-30T13:24:26;10.68;;;7.95;;
76380;SDS011;65202;52.520;10.528;2023-08-30T13:26:53;11.70;;;6.03;;
76380;SDS011;65202;52.520;10.528;2023-08-30T13:29:20;13.25;;;6.22;;
76380;SDS011;65202;52.520;10.528;2023-08-30T13:31:48;8.77;;;5.85;;
76380;SDS011;65202;52.520;10.528;2023-08-30T13:34:15;6.93;;;5.97;;
76380;SDS011;65202;52.520;10.528;2023-08-30T13:36:42;7.80;;;5.90;;
76380;SDS011;65202;52.520;10.528;2023-08-30T13:39:09;6.38;;;5.72;;
76380;SDS011;65202;52.520;10.528;2023-08-30T13:41:36;7.60;;;6.40;;
76380;SDS011;65202;52.520;10.528;2023-08-30T13:44:04;7.35;;;6.00;;
76380;SDS011;65202;52.520;10.528;2023-08-30T13:46:32;8.32;;;5.45;;
76380;SDS011;65202;52.520;10.528;2023-08-30T13:49:00;13.02;;;5.88;;
76380;SDS011;65202;52.520;10.528;2023-08-30T13:51:27;6.78;;;5.68;;
76380;SDS011;65202;52.520;10.528;2023-08-30T13:53:54;14.32;;;10.00;;
76380;SDS011;65202;52.520;10.528;2023-08-30T13:56:22;8.63;;;5.70;;
76380;SDS011;65202;52.520;10.528;2023-08-30T13:58:50;12.38;;;6.35;;
76380;SDS011;65202;52.520;10.528;2023-08-30T14:01:20;11.85;;;5.18;;
76380;SDS011;65202;52.520;10.528;2023-08-30T14:03:47;6.22;;;5.07;;
76380;SDS011;65202;52.520;10.528;2023-08-30T14:06:16;8.85;;;7.03;;
76380;SDS011;65202;52.520;10.528;2023-08-30T14:08:44;6.47;;;5.00;;
76380;SDS011;65202;52.520;10.528;2023-08-30T14:11:12;8.68;;;6.45;;
76380;SDS011;65202;52.520;10.528;2023-08-30T14:13:40;8.40;;;5.30;;
76380;SDS011;65202;52.520;10.528;2023-08-30T14:16:07;6.75;;;4.47;;
76380;SDS011;65202;52.520;10.528;2023-08-30T14:18:37;7.30;;;4.78;;
76380;SDS011;65202;52.520;10.528;2023-08-30T14:21:04;5.97;;;4.70;;
76380;SDS011;65202;52.520;10.528;2023-08-30T14:23:31;10.23;;;4.85;;
76380;SDS011;65202;52.520;10.528;2023-08-30T14:26:00;9.63;;;5.20;;
76380;SDS011;65202;52.520;10.528;2023-08-30T14:28:39;8.52;;;5.88;;
76380;SDS011;65202;52.520;10.528;2023-08-30T14:31:07;7.40;;;5.90;;
76380;SDS011;65202;52.520;10.528;2023-08-30T14:33:37;7.45;;;5.78;;
76380;SDS011;65202;52.520;10.528;2023-08-30T14:36:09;6.90;;;5.45;;
76380;SDS011;65202;52.520;10.528;2023-08-30T14:38:37;7.68;;;5.68;;
76380;SDS011;65202;52.520;10.528;2023-08-30T14:41:05;8.52;;;5.70;;
76380;SDS011;65202;52.520;10.528;2023-08-30T14:43:32;8.85;;;6.35;;
76380;SDS011;65202;52.520;10.528;2023-08-30T14:46:04;8.85;;;6.07;;